createdAt,value
2023-05-14T00:01:39.164Z,76.56
2023-05-14T00:04:05.948Z,76.43
2023-05-14T00:06:32.771Z,76.05
2023-05-14T00:08:59.439Z,76.28
2023-05-14T00:11:26.162Z,76.10
2023-05-14T00:13:52.716Z,76.54
2023-05-14T00:16:19.306Z,76.38
2023-05-14T00:18:47.298Z,76.50
2023-05-14T00:21:13.965Z,76.57
2023-05-14T00:23:40.548Z,76.81
2023-05-14T00:26:07.098Z,76.88
2023-05-14T00:28:33.626Z,76.66
2023-05-14T00:31:00.416Z,76.54
2023-05-14T00:33:27.108Z,76.52
2023-05-14T00:35:54.991Z,76.02
2023-05-14T00:38:21.571Z,76.21
2023-05-14T00:40:51.712Z,76.57
2023-05-14T00:43:18.587Z,76.82
2023-05-14T00:45:45.912Z,76.61
2023-05-14T00:48:13.061Z,70.69
2023-05-14T00:50:39.773Z,76.29
2023-05-14T00:53:10.390Z,75.97
2023-05-14T00:55:37.781Z,76.10
2023-05-14T00:58:07.299Z,76.45
2023-05-14T01:00:34.161Z,76.37
2023-05-14T01:03:01.901Z,76.19
2023-05-14T01:05:36.465Z,76.38
2023-05-14T01:08:11.386Z,76.61
2023-05-14T01:10:45.799Z,76.28
2023-05-14T01:13:18.382Z,76.50
2023-05-14T01:15:47.383Z,76.26
2023-05-14T01:18:18.833Z,76.21
2023-05-14T01:20:45.984Z,76.24
2023-05-14T01:23:14.523Z,71.32
2023-05-14T01:25:41.362Z,75.02
2023-05-14T01:28:13.022Z,78.51
2023-05-14T01:30:45.890Z,76.78
2023-05-14T01:33:14.443Z,76.53
2023-05-14T01:35:41.505Z,76.54
2023-05-14T01:38:11.619Z,75.74
2023-05-14T01:40:39.750Z,74.76
2023-05-14T01:43:06.634Z,72.46
2023-05-14T01:45:35.594Z,77.15
2023-05-14T01:48:02.320Z,76.11
2023-05-14T01:50:29.037Z,76.01
2023-05-14T01:52:56.745Z,76.37
2023-05-14T01:55:24.470Z,76.25
2023-05-14T01:57:52.711Z,76.21
2023-05-14T02:00:19.663Z,76.45
2023-05-14T02:02:46.413Z,76.06
2023-05-14T02:05:13.451Z,75.86
2023-05-14T02:07:40.406Z,76.06
2023-05-14T02:10:08.432Z,76.36
2023-05-14T02:12:35.088Z,75.94
2023-05-14T02:15:03.715Z,72.28
2023-05-14T02:17:30.395Z,76.35
2023-05-14T02:19:57.056Z,76.53
2023-05-14T02:22:23.678Z,76.08
2023-05-14T02:24:51.335Z,76.04
2023-05-14T02:27:17.967Z,75.87
2023-05-14T02:29:44.903Z,76.45
2023-05-14T02:32:12.891Z,75.94
2023-05-14T02:34:39.720Z,76.06
2023-05-14T02:37:06.319Z,75.92
2023-05-14T02:39:32.981Z,75.76
2023-05-14T02:41:59.636Z,75.43
2023-05-14T02:44:26.232Z,75.74
2023-05-14T02:46:53.374Z,76.09
2023-05-14T02:49:21.439Z,76.43
2023-05-14T02:51:48.026Z,76.21
2023-05-14T02:54:16.434Z,72.43
2023-05-14T02:56:43.166Z,79.89
2023-05-14T02:59:09.934Z,80.67
2023-05-14T03:01:37.160Z,77.23
2023-05-14T03:04:04.530Z,76.03
2023-05-14T03:06:32.512Z,76.03
2023-05-14T03:08:59.056Z,76.28
2023-05-14T03:11:25.830Z,76.07
2023-05-14T03:13:52.419Z,76.47
2023-05-14T03:16:18.977Z,76.00
2023-05-14T03:18:45.559Z,75.79
2023-05-14T03:21:12.447Z,75.56
2023-05-14T03:23:40.407Z,75.77
2023-05-14T03:26:07.204Z,75.63
2023-05-14T03:28:33.881Z,75.98
2023-05-14T03:31:00.978Z,76.04
2023-05-14T03:33:28.151Z,74.72
2023-05-14T03:35:54.781Z,81.17
2023-05-14T03:38:21.418Z,77.29
2023-05-14T03:40:49.497Z,76.26
2023-05-14T03:43:16.400Z,76.54
2023-05-14T03:45:44.267Z,76.36
2023-05-14T03:48:11.027Z,75.93
2023-05-14T03:50:37.714Z,75.52
2023-05-14T03:53:04.297Z,75.58
2023-05-14T03:55:30.896Z,75.49
2023-05-14T03:57:58.864Z,75.41
2023-05-14T04:00:25.829Z,75.22
2023-05-14T04:02:52.837Z,75.62
2023-05-14T04:05:19.557Z,77.64
2023-05-14T04:07:46.290Z,76.41
2023-05-14T04:10:13.179Z,75.21
2023-05-14T04:12:39.823Z,80.22
2023-05-14T04:15:09.389Z,77.96
2023-05-14T04:17:35.991Z,77.04
2023-05-14T04:20:02.612Z,76.21
2023-05-14T04:22:29.280Z,76.27
2023-05-14T04:24:55.886Z,76.19
2023-05-14T04:27:22.796Z,76.25
2023-05-14T04:29:49.789Z,76.89
2023-05-14T04:32:18.219Z,76.72
2023-05-14T04:34:45.089Z,76.49
2023-05-14T04:37:11.736Z,75.68
2023-05-14T04:39:38.603Z,75.76
2023-05-14T04:42:06.809Z,75.69
2023-05-14T04:44:34.052Z,74.67
2023-05-14T04:47:00.662Z,78.88
2023-05-14T04:49:29.055Z,83.47
2023-05-14T04:51:55.843Z,78.09
2023-05-14T04:54:22.736Z,76.51
2023-05-14T04:56:49.746Z,76.07
2023-05-14T04:59:16.470Z,75.29
2023-05-14T05:01:43.219Z,76.05
2023-05-14T05:04:09.890Z,75.97
2023-05-14T05:06:37.851Z,75.83
2023-05-14T05:09:04.562Z,75.62
2023-05-14T05:11:31.209Z,75.54
2023-05-14T05:13:57.807Z,75.41
2023-05-14T05:16:24.519Z,77.86
2023-05-14T05:18:51.316Z,76.14
2023-05-14T05:21:18.039Z,76.10
2023-05-14T05:23:45.990Z,75.80
2023-05-14T05:26:12.600Z,75.93
2023-05-14T05:28:39.177Z,75.46
2023-05-14T05:31:05.823Z,75.92
2023-05-14T05:33:34.119Z,75.53
2023-05-14T05:36:00.866Z,79.61
2023-05-14T05:38:27.526Z,79.40
2023-05-14T05:40:55.611Z,80.81
2023-05-14T05:43:22.198Z,78.06
2023-05-14T05:45:48.809Z,76.80
2023-05-14T05:48:15.429Z,76.86
2023-05-14T05:50:44.271Z,79.08
2023-05-14T05:53:10.948Z,80.21
2023-05-14T05:55:37.658Z,77.76
2023-05-14T05:58:05.721Z,77.19
2023-05-14T06:00:32.346Z,77.16
2023-05-14T06:02:58.986Z,77.28
2023-05-14T06:05:25.920Z,76.04
2023-05-14T06:07:53.706Z,77.06
2023-05-14T06:10:20.326Z,81.86
2023-05-14T06:12:46.921Z,84.14
2023-05-14T06:15:15.060Z,81.97
2023-05-14T06:17:41.726Z,83.24
2023-05-14T06:20:09.182Z,85.63
2023-05-14T06:22:35.823Z,87.31
2023-05-14T06:25:02.391Z,87.92
2023-05-14T06:27:29.103Z,87.88
2023-05-14T06:29:55.955Z,81.58
2023-05-14T06:32:24.126Z,79.47
2023-05-14T06:34:50.828Z,78.65
2023-05-14T06:37:17.440Z,78.12
2023-05-14T06:39:49.806Z,77.88
2023-05-14T06:42:16.622Z,76.94
2023-05-14T06:44:43.302Z,81.03
2023-05-14T06:47:09.871Z,78.61
2023-05-14T06:49:38.451Z,79.45
2023-05-14T06:52:05.715Z,77.83
2023-05-14T06:54:32.316Z,77.85
2023-05-14T06:56:58.932Z,77.72
2023-05-14T06:59:25.957Z,79.79
2023-05-14T07:01:52.628Z,78.20
2023-05-14T07:04:19.470Z,82.60
2023-05-14T07:06:47.593Z,84.77
2023-05-14T07:09:14.403Z,86.76
2023-05-14T07:11:40.948Z,87.06
2023-05-14T07:14:07.601Z,83.44
2023-05-14T07:16:34.184Z,79.33
2023-05-14T07:19:00.804Z,85.29
2023-05-14T07:21:27.885Z,85.89
2023-05-14T07:23:55.843Z,85.95
2023-05-14T07:26:24.319Z,82.94
2023-05-14T07:28:50.988Z,84.67
2023-05-14T07:31:17.701Z,84.20
2023-05-14T07:33:44.357Z,85.26
2023-05-14T07:36:11.132Z,85.11
2023-05-14T07:38:37.870Z,87.12
2023-05-14T07:41:05.920Z,85.59
2023-05-14T07:43:32.630Z,86.41
2023-05-14T07:45:59.337Z,87.22
2023-05-14T07:48:26.226Z,85.80
2023-05-14T07:50:52.854Z,85.58
2023-05-14T07:53:19.440Z,86.27
2023-05-14T07:55:48.396Z,84.87
2023-05-14T07:58:16.648Z,81.99
2023-05-14T08:00:43.246Z,81.82
2023-05-14T08:03:09.923Z,82.92
2023-05-14T08:05:36.916Z,84.62
2023-05-14T08:08:03.780Z,79.96
2023-05-14T08:10:30.707Z,81.75
2023-05-14T08:12:57.423Z,81.48
2023-05-14T08:15:27.557Z,79.14
2023-05-14T08:17:54.855Z,80.29
2023-05-14T08:20:22.221Z,79.44
2023-05-14T08:22:49.111Z,78.93
2023-05-14T08:25:15.863Z,79.19
2023-05-14T08:27:42.500Z,78.33
2023-05-14T08:30:09.670Z,78.20
2023-05-14T08:32:38.739Z,79.73
2023-05-14T08:35:06.755Z,78.63
2023-05-14T08:37:33.380Z,77.88
2023-05-14T08:40:00.129Z,79.88
2023-05-14T08:42:28.532Z,78.88
2023-05-14T08:45:00.723Z,77.53
2023-05-14T08:47:29.164Z,77.54
2023-05-14T08:50:02.607Z,78.17
2023-05-14T08:52:30.264Z,78.89
2023-05-14T08:54:58.929Z,78.85
2023-05-14T08:57:26.545Z,78.38
2023-05-14T08:59:53.869Z,77.59
2023-05-14T09:02:24.638Z,78.81
2023-05-14T09:04:55.254Z,79.71
2023-05-14T09:07:23.868Z,79.21
2023-05-14T09:09:51.121Z,78.78
2023-05-14T09:12:17.954Z,78.97
2023-05-14T09:14:44.936Z,79.02
2023-05-14T09:17:12.633Z,79.47
2023-05-14T09:19:40.177Z,79.93
2023-05-14T09:22:09.541Z,79.17
2023-05-14T09:24:38.820Z,78.36
2023-05-14T09:27:06.657Z,79.96
2023-05-14T09:29:34.245Z,79.32
2023-05-14T09:32:05.652Z,80.17
2023-05-14T09:34:33.937Z,79.61
2023-05-14T09:37:02.073Z,78.84
2023-05-14T09:39:31.155Z,78.95
2023-05-14T09:41:59.174Z,78.18
2023-05-14T09:44:26.092Z,79.72
2023-05-14T09:46:53.749Z,79.18
2023-05-14T09:49:20.852Z,80.30
2023-05-14T09:51:48.493Z,80.72
2023-05-14T09:54:15.183Z,79.14
2023-05-14T09:56:44.477Z,79.81
2023-05-14T09:59:12.605Z,78.87
2023-05-14T10:01:42.379Z,79.29
2023-05-14T10:04:11.193Z,77.71
2023-05-14T10:06:38.970Z,78.58
2023-05-14T10:09:12.501Z,79.10
2023-05-14T10:11:42.939Z,78.35
2023-05-14T10:14:19.549Z,79.50
2023-05-14T10:16:49.747Z,79.38
2023-05-14T10:19:18.019Z,79.84
2023-05-14T10:21:48.814Z,80.80
2023-05-14T10:24:16.134Z,80.93
2023-05-14T10:26:43.183Z,81.59
2023-05-14T10:29:11.348Z,82.74
2023-05-14T10:31:50.076Z,83.00
2023-05-14T10:34:34.675Z,82.12
2023-05-14T10:37:02.113Z,82.92
2023-05-14T10:39:42.923Z,82.24
2023-05-14T10:42:13.077Z,82.44
2023-05-14T10:44:47.279Z,81.71
2023-05-14T10:47:17.576Z,82.92
2023-05-14T10:49:45.774Z,81.00
2023-05-14T10:52:12.603Z,81.87
2023-05-14T10:54:39.263Z,82.92
2023-05-14T10:57:11.659Z,83.44
2023-05-14T10:59:42.212Z,83.27
2023-05-14T11:02:19.230Z,82.26
2023-05-14T11:04:52.768Z,80.81
2023-05-14T11:07:24.011Z,81.46
2023-05-14T11:09:51.273Z,81.08
2023-05-14T11:12:18.869Z,81.62
2023-05-14T11:14:47.098Z,81.54
2023-05-14T11:17:14.799Z,82.43
2023-05-14T11:19:45.850Z,83.00
2023-05-14T11:22:13.791Z,82.31
2023-05-14T11:24:43.102Z,80.57
2023-05-14T11:27:11.183Z,80.40
2023-05-14T11:29:38.533Z,79.73
2023-05-14T11:32:06.522Z,79.59
2023-05-14T11:34:34.549Z,79.40
2023-05-14T11:37:04.677Z,79.04
2023-05-14T11:39:32.063Z,78.87
2023-05-14T11:42:02.394Z,78.73
2023-05-14T11:44:29.179Z,77.04
2023-05-14T11:46:56.290Z,77.11
2023-05-14T11:49:23.915Z,76.46
2023-05-14T11:51:50.727Z,77.75
2023-05-14T11:54:18.706Z,77.63
2023-05-14T11:56:50.194Z,78.02
2023-05-14T11:59:17.528Z,79.06
2023-05-14T12:01:44.553Z,77.64
2023-05-14T12:04:11.759Z,77.95
2023-05-14T12:06:39.209Z,76.19
2023-05-14T12:09:06.115Z,76.71
2023-05-14T12:11:36.127Z,76.18
2023-05-14T12:14:10.676Z,76.96
2023-05-14T12:16:40.221Z,77.54
2023-05-14T12:19:09.642Z,77.81
2023-05-14T12:21:36.601Z,77.09
2023-05-14T12:24:03.359Z,76.34
2023-05-14T12:26:34.603Z,76.02
2023-05-14T12:29:03.449Z,77.08
2023-05-14T12:31:30.764Z,76.84
2023-05-14T12:33:57.735Z,74.62
2023-05-14T12:36:24.696Z,74.87
2023-05-14T12:38:56.928Z,75.37
2023-05-14T12:41:23.537Z,73.53
2023-05-14T12:43:51.541Z,74.89
2023-05-14T12:46:18.297Z,75.22
2023-05-14T12:48:45.231Z,77.11
2023-05-14T12:51:11.921Z,73.59
2023-05-14T12:53:38.697Z,73.56
2023-05-14T12:56:06.424Z,76.20
2023-05-14T12:58:33.148Z,76.61
2023-05-14T13:01:01.240Z,76.55
2023-05-14T13:03:27.868Z,76.02
2023-05-14T13:05:54.967Z,77.81
2023-05-14T13:08:21.748Z,78.22
2023-05-14T13:10:48.379Z,78.38
2023-05-14T13:13:15.699Z,78.77
2023-05-14T13:15:43.492Z,77.53
2023-05-14T13:18:11.495Z,73.66
2023-05-14T13:20:38.058Z,77.02
2023-05-14T13:23:04.663Z,74.88
2023-05-14T13:25:31.306Z,75.05
2023-05-14T13:27:57.893Z,75.58
2023-05-14T13:30:24.794Z,73.99
2023-05-14T13:32:51.488Z,72.58
2023-05-14T13:35:19.424Z,72.57
2023-05-14T13:37:47.058Z,71.26
2023-05-14T13:40:13.770Z,75.15
2023-05-14T13:42:40.392Z,74.94
2023-05-14T13:45:07.999Z,72.30
2023-05-14T13:47:34.777Z,72.74
2023-05-14T13:50:01.413Z,73.26
2023-05-14T13:52:29.377Z,74.91
2023-05-14T13:54:56.538Z,77.41
2023-05-14T13:57:23.354Z,76.19
2023-05-14T13:59:50.122Z,75.22
2023-05-14T14:02:16.785Z,76.90
2023-05-14T14:04:43.468Z,77.90
2023-05-14T14:07:10.192Z,78.22
2023-05-14T14:09:38.165Z,77.53
2023-05-14T14:12:05.808Z,76.80
2023-05-14T14:14:32.609Z,77.68
2023-05-14T14:16:59.207Z,76.11
2023-05-14T14:19:25.860Z,74.25
2023-05-14T14:21:53.059Z,75.45
2023-05-14T14:24:20.008Z,76.87
2023-05-14T14:26:48.004Z,74.73
2023-05-14T14:29:14.676Z,74.65
2023-05-14T14:31:41.410Z,74.77
2023-05-14T14:34:08.294Z,77.42
2023-05-14T14:36:34.946Z,78.61
2023-05-14T14:39:01.698Z,78.58
2023-05-14T14:41:28.326Z,78.70
2023-05-14T14:43:58.942Z,78.12
2023-05-14T14:46:25.647Z,79.26
2023-05-14T14:48:52.706Z,79.25
2023-05-14T14:51:19.498Z,79.03
2023-05-14T14:53:46.230Z,79.67
2023-05-14T14:56:12.867Z,78.94
2023-05-14T14:58:39.542Z,78.96
2023-05-14T15:01:07.613Z,78.81
2023-05-14T15:03:34.424Z,78.69
2023-05-14T15:06:01.192Z,78.52
2023-05-14T15:08:28.586Z,78.91
2023-05-14T15:10:56.256Z,78.71
2023-05-14T15:13:23.192Z,78.68
2023-05-14T15:15:52.066Z,78.80
2023-05-14T15:18:20.190Z,78.94
2023-05-14T15:20:47.030Z,79.56
2023-05-14T15:23:13.832Z,79.54
2023-05-14T15:25:40.631Z,78.95
2023-05-14T15:28:07.627Z,79.23
2023-05-14T15:30:34.736Z,79.02
2023-05-14T15:33:01.458Z,81.65
2023-05-14T15:35:29.594Z,83.50
2023-05-14T15:37:59.515Z,82.58
2023-05-14T15:40:27.355Z,80.45
2023-05-14T15:42:54.212Z,83.03
2023-05-14T15:45:21.053Z,85.48
2023-05-14T15:47:47.719Z,85.59
2023-05-14T15:50:14.362Z,85.64
2023-05-14T15:52:42.420Z,86.21
2023-05-14T15:55:10.109Z,86.46
2023-05-14T15:57:36.912Z,85.93
2023-05-14T16:00:10.997Z,86.30
2023-05-14T16:02:38.021Z,85.63
2023-05-14T16:05:05.629Z,81.83
2023-05-14T16:07:33.160Z,80.78
2023-05-14T16:10:01.069Z,80.38
2023-05-14T16:12:27.880Z,82.89
2023-05-14T16:14:57.503Z,82.65
2023-05-14T16:17:24.066Z,80.65
2023-05-14T16:19:50.812Z,80.21
2023-05-14T16:22:17.530Z,80.17
2023-05-14T16:24:44.834Z,79.96
2023-05-14T16:27:12.875Z,79.87
2023-05-14T16:29:39.453Z,81.52
2023-05-14T16:32:06.313Z,80.65
2023-05-14T16:34:32.912Z,80.02
2023-05-14T16:36:59.642Z,79.71
2023-05-14T16:39:26.318Z,79.16
2023-05-14T16:41:52.886Z,79.39
2023-05-14T16:44:20.924Z,78.90
2023-05-14T16:46:48.082Z,78.62
2023-05-14T16:49:14.750Z,79.61
2023-05-14T16:51:43.159Z,79.20
2023-05-14T16:54:09.862Z,79.25
2023-05-14T16:56:36.731Z,79.43
2023-05-14T16:59:03.371Z,79.17
2023-05-14T17:01:31.844Z,79.36
2023-05-14T17:03:58.778Z,79.92
2023-05-14T17:06:25.426Z,82.48
2023-05-14T17:08:51.998Z,82.26
2023-05-14T17:11:18.595Z,83.02
2023-05-14T17:13:45.172Z,83.12
2023-05-14T17:16:12.034Z,82.93
2023-05-14T17:18:40.126Z,83.25
2023-05-14T17:21:07.513Z,84.41
2023-05-14T17:23:34.334Z,85.32
2023-05-14T17:26:01.000Z,83.25
2023-05-14T17:28:29.744Z,80.46
2023-05-14T17:30:56.545Z,79.86
2023-05-14T17:33:23.163Z,80.74
2023-05-14T17:35:51.410Z,82.75
2023-05-14T17:38:18.075Z,82.97
2023-05-14T17:40:44.779Z,83.08
2023-05-14T17:43:11.596Z,82.92
2023-05-14T17:45:52.608Z,84.30
2023-05-14T17:48:20.391Z,84.98
2023-05-14T17:50:47.029Z,86.75
2023-05-14T17:53:15.147Z,86.99
2023-05-14T17:55:43.644Z,86.22
2023-05-14T17:58:11.404Z,83.50
2023-05-14T18:00:38.143Z,81.14
2023-05-14T18:03:04.921Z,80.84
2023-05-14T18:05:32.568Z,80.03
2023-05-14T18:07:59.851Z,79.56
2023-05-14T18:10:29.563Z,79.37
2023-05-14T18:12:56.659Z,79.54
2023-05-14T18:15:25.702Z,79.54
2023-05-14T18:17:52.983Z,79.51
2023-05-14T18:20:20.076Z,79.35
2023-05-14T18:22:46.790Z,79.48
2023-05-14T18:25:13.712Z,79.13
2023-05-14T18:27:44.502Z,79.30
2023-05-14T18:30:12.957Z,79.09
2023-05-14T18:32:40.073Z,79.12
2023-05-14T18:35:08.204Z,79.08
2023-05-14T18:37:35.282Z,79.09
2023-05-14T18:40:06.881Z,79.15
2023-05-14T18:42:34.012Z,78.84
2023-05-14T18:45:03.206Z,78.92
2023-05-14T18:47:29.954Z,81.05
2023-05-14T18:49:59.007Z,79.23
2023-05-14T18:52:26.326Z,78.93
2023-05-14T18:54:54.616Z,78.80
2023-05-14T18:57:22.810Z,78.90
2023-05-14T18:59:49.411Z,78.61
2023-05-14T19:02:17.527Z,78.66
2023-05-14T19:04:52.357Z,78.61
2023-05-14T19:07:20.001Z,78.73
2023-05-14T19:09:46.611Z,78.60
2023-05-14T19:12:13.699Z,78.47
2023-05-14T19:14:40.283Z,78.58
2023-05-14T19:17:07.398Z,78.40
2023-05-14T19:19:35.535Z,77.98
2023-05-14T19:22:02.170Z,78.11
2023-05-14T19:24:28.770Z,78.21
2023-05-14T19:26:55.903Z,78.56
2023-05-14T19:29:22.427Z,78.21
2023-05-14T19:31:49.991Z,78.31
2023-05-14T19:34:16.889Z,78.36
2023-05-14T19:36:44.974Z,78.23
2023-05-14T19:39:11.624Z,78.23
2023-05-14T19:41:38.554Z,78.17
2023-05-14T19:44:05.518Z,78.16
2023-05-14T19:46:32.176Z,78.04
2023-05-14T19:48:58.869Z,77.96
2023-05-14T19:51:25.522Z,78.17
2023-05-14T19:53:53.459Z,78.02
2023-05-14T19:56:20.093Z,77.82
2023-05-14T19:58:46.657Z,78.09
2023-05-14T20:01:14.471Z,78.31
2023-05-14T20:03:41.225Z,77.95
2023-05-14T20:06:08.028Z,78.06
2023-05-14T20:08:34.646Z,78.25
2023-05-14T20:11:03.281Z,77.78
2023-05-14T20:13:31.968Z,77.63
2023-05-14T20:15:58.695Z,77.60
2023-05-14T20:18:25.417Z,77.41
2023-05-14T20:20:52.053Z,77.67
2023-05-14T20:23:18.754Z,77.59
2023-05-14T20:25:45.446Z,77.54
2023-05-14T20:28:13.435Z,77.43
2023-05-14T20:30:40.758Z,77.60
2023-05-14T20:33:08.156Z,77.45
2023-05-14T20:35:34.835Z,77.67
2023-05-14T20:38:03.441Z,77.40
2023-05-14T20:40:30.451Z,77.32
2023-05-14T20:42:57.159Z,77.38
2023-05-14T20:45:25.450Z,77.22
2023-05-14T20:47:52.714Z,77.27
2023-05-14T20:50:19.375Z,77.23
2023-05-14T20:52:45.960Z,77.17
2023-05-14T20:55:13.314Z,77.29
2023-05-14T20:57:40.733Z,76.94
2023-05-14T21:00:11.414Z,77.02
2023-05-14T21:02:39.566Z,76.73
2023-05-14T21:05:07.060Z,76.98
2023-05-14T21:07:33.653Z,77.18
2023-05-14T21:10:01.016Z,77.27
2023-05-14T21:12:27.621Z,77.17
2023-05-14T21:14:54.180Z,77.03
2023-05-14T21:17:20.845Z,77.23
2023-05-14T21:19:48.833Z,77.03
2023-05-14T21:22:15.430Z,77.43
2023-05-14T21:24:42.013Z,77.28
2023-05-14T21:27:11.285Z,77.24
2023-05-14T21:29:38.527Z,77.28
2023-05-14T21:32:06.126Z,77.13
2023-05-14T21:34:32.721Z,76.59
2023-05-14T21:37:00.874Z,76.72
2023-05-14T21:39:27.417Z,75.51
2023-05-14T21:41:53.989Z,77.29
2023-05-14T21:44:21.029Z,78.08
2023-05-14T21:46:47.751Z,77.28
2023-05-14T21:49:14.313Z,76.96
2023-05-14T21:51:40.904Z,77.10
2023-05-14T21:54:09.539Z,79.64
2023-05-14T21:56:37.120Z,77.58
2023-05-14T21:59:03.735Z,77.13
2023-05-14T22:01:30.368Z,76.82
2023-05-14T22:03:58.016Z,76.98
2023-05-14T22:06:25.056Z,76.27
2023-05-14T22:08:51.642Z,75.65
2023-05-14T22:11:19.826Z,77.31
2023-05-14T22:13:46.458Z,76.95
2023-05-14T22:16:13.969Z,76.78
2023-05-14T22:18:41.030Z,76.81
2023-05-14T22:21:07.729Z,76.94
2023-05-14T22:23:34.416Z,76.92
2023-05-14T22:26:01.142Z,77.13
2023-05-14T22:28:29.101Z,77.12
2023-05-14T22:30:56.552Z,77.16
2023-05-14T22:33:23.302Z,78.11
2023-05-14T22:35:49.893Z,77.31
2023-05-14T22:38:16.586Z,75.13
2023-05-14T22:40:43.182Z,77.24
2023-05-14T22:43:09.781Z,78.69
2023-05-14T22:45:37.867Z,77.71
2023-05-14T22:48:04.795Z,77.64
2023-05-14T22:50:31.475Z,77.55
2023-05-14T22:52:58.069Z,77.71
2023-05-14T22:55:24.894Z,77.30
2023-05-14T22:57:51.661Z,77.71
2023-05-14T23:00:18.695Z,77.30
2023-05-14T23:02:46.821Z,77.91
2023-05-14T23:05:13.572Z,77.14
2023-05-14T23:07:40.579Z,75.88
2023-05-14T23:10:08.072Z,78.48
2023-05-14T23:12:34.837Z,78.97
2023-05-14T23:15:01.533Z,78.25
2023-05-14T23:17:28.353Z,79.43
2023-05-14T23:19:56.585Z,79.59
2023-05-14T23:22:23.147Z,78.04
2023-05-14T23:24:49.793Z,78.88
2023-05-14T23:27:16.743Z,77.60
2023-05-14T23:29:43.348Z,77.53
2023-05-14T23:32:10.179Z,78.05
2023-05-14T23:34:36.880Z,77.45
2023-05-14T23:37:05.403Z,76.62
2023-05-14T23:39:32.787Z,77.98
2023-05-14T23:41:59.417Z,77.79
2023-05-14T23:44:26.494Z,78.66
2023-05-14T23:46:53.315Z,75.53
2023-05-14T23:49:20.123Z,80.50
2023-05-14T23:51:46.747Z,78.18
2023-05-14T23:54:14.710Z,77.68
2023-05-14T23:56:41.324Z,77.57
2023-05-14T23:59:07.979Z,77.45
